LOT024W EPMO-EPWR
Flight info
| Callsign | LOT024W |
|---|---|
| Flight time | 0h 33m |
| Altitude | 36000 |
| Route | SOXER N869 UVIVI |
| Aircraft | B736/M-SDE2E3FGHIRWXY/LB1 |
Departure
| Time | 2026-05-04 19:52 |
|---|---|
| Airport | Warsaw Modlin Airport (EPMO) |
Arrival
| Time | 2026-05-04 20:26 |
|---|---|
| Airport | Copernicus Wrocław Airport (EPWR) |
| Time | Latitude | Longitude | Altitude | Speed | Heading |
|---|---|---|---|---|---|
| 2026-05-04 19:30 | 52.44772 | 20.65574 | 357 ft | 0 kts | 205° |
| 2026-05-04 19:43 | 52.44792 | 20.65589 | 352 ft | 4 kts | 199° |
| 2026-05-04 19:43 | 52.44817 | 20.65595 | 352 ft | 4 kts | 146° |
| 2026-05-04 19:44 | 52.44822 | 20.65584 | 358 ft | 1 kts | 83° |
| 2026-05-04 19:48 | 52.44824 | 20.65607 | 352 ft | 4 kts | 83° |
| 2026-05-04 19:48 | 52.44829 | 20.65682 | 349 ft | 9 kts | 82° |
| 2026-05-04 19:48 | 52.44841 | 20.65808 | 355 ft | 13 kts | 81° |
| 2026-05-04 19:49 | 52.44855 | 20.65961 | 352 ft | 14 kts | 81° |
| 2026-05-04 19:49 | 52.44869 | 20.66111 | 352 ft | 13 kts | 81° |
| 2026-05-04 19:49 | 52.44882 | 20.66256 | 355 ft | 13 kts | 81° |
| 2026-05-04 19:49 | 52.44896 | 20.66400 | 356 ft | 13 kts | 81° |
| 2026-05-04 19:50 | 52.44910 | 20.66556 | 352 ft | 15 kts | 81° |
| 2026-05-04 19:50 | 52.44927 | 20.66731 | 352 ft | 16 kts | 81° |
| 2026-05-04 19:50 | 52.44943 | 20.66906 | 351 ft | 15 kts | 81° |
| 2026-05-04 19:50 | 52.44977 | 20.67063 | 352 ft | 15 kts | 38° |
| 2026-05-04 19:51 | 52.45070 | 20.67066 | 355 ft | 14 kts | 350° |
| 2026-05-04 19:51 | 52.45176 | 20.67035 | 353 ft | 17 kts | 346° |
| 2026-05-04 19:51 | 52.45277 | 20.66929 | 353 ft | 18 kts | 285° |
| 2026-05-04 19:51 | 52.45261 | 20.66684 | 346 ft | 43 kts | 260° |
| 2026-05-04 19:52 | 52.45167 | 20.65679 | 359 ft | 131 kts | 261° |
| 2026-05-04 19:52 | 52.44990 | 20.63891 | 664 ft | 172 kts | 259° |
| 2026-05-04 19:52 | 52.44736 | 20.62006 | 1842 ft | 163 kts | 259° |
| 2026-05-04 19:52 | 52.44553 | 20.60271 | 2994 ft | 153 kts | 261° |
| 2026-05-04 19:53 | 52.44370 | 20.58424 | 3490 ft | 178 kts | 260° |
| 2026-05-04 19:53 | 52.44242 | 20.56264 | 3884 ft | 197 kts | 276° |
| 2026-05-04 19:53 | 52.44717 | 20.54079 | 3971 ft | 212 kts | 306° |
| 2026-05-04 19:53 | 52.45416 | 20.51928 | 3958 ft | 226 kts | 274° |
| 2026-05-04 19:54 | 52.45036 | 20.49431 | 4400 ft | 235 kts | 233° |
| 2026-05-04 19:54 | 52.43695 | 20.47874 | 5056 ft | 249 kts | 198° |
| 2026-05-04 19:54 | 52.41906 | 20.47592 | 5685 ft | 263 kts | 182° |
| 2026-05-04 19:54 | 52.40059 | 20.47792 | 6566 ft | 268 kts | 175° |
| 2026-05-04 19:55 | 52.38193 | 20.48201 | 7426 ft | 273 kts | 175° |
| 2026-05-04 19:55 | 52.36303 | 20.48635 | 8361 ft | 276 kts | 175° |
| 2026-05-04 19:55 | 52.34378 | 20.49055 | 9310 ft | 280 kts | 176° |
| 2026-05-04 19:55 | 52.32447 | 20.49462 | 10248 ft | 285 kts | 175° |
| 2026-05-04 19:56 | 52.30411 | 20.49943 | 10653 ft | 310 kts | 175° |
| 2026-05-04 19:56 | 52.28138 | 20.50452 | 10861 ft | 338 kts | 176° |
| 2026-05-04 19:56 | 52.25763 | 20.50883 | 11386 ft | 350 kts | 182° |
| 2026-05-04 19:56 | 52.23418 | 20.50073 | 12244 ft | 345 kts | 208° |
| 2026-05-04 19:57 | 52.21448 | 20.47843 | 13272 ft | 342 kts | 225° |
| 2026-05-04 19:57 | 52.19997 | 20.44835 | 14092 ft | 346 kts | 237° |
| 2026-05-04 19:57 | 52.18690 | 20.41413 | 14846 ft | 352 kts | 239° |
| 2026-05-04 19:57 | 52.17428 | 20.37932 | 15624 ft | 358 kts | 240° |
| 2026-05-04 19:58 | 52.16165 | 20.34411 | 16414 ft | 362 kts | 240° |
| 2026-05-04 19:58 | 52.14875 | 20.30834 | 17200 ft | 367 kts | 239° |
| 2026-05-04 19:58 | 52.13566 | 20.27235 | 17958 ft | 373 kts | 239° |
| 2026-05-04 19:58 | 52.12213 | 20.23544 | 18667 ft | 378 kts | 239° |
| 2026-05-04 19:59 | 52.10854 | 20.19862 | 19354 ft | 381 kts | 239° |
| 2026-05-04 19:59 | 52.09485 | 20.16173 | 20040 ft | 385 kts | 239° |
| 2026-05-04 19:59 | 52.08092 | 20.12434 | 20725 ft | 389 kts | 239° |
| 2026-05-04 19:59 | 52.06657 | 20.08591 | 21390 ft | 393 kts | 239° |
| 2026-05-04 20:00 | 52.05249 | 20.04827 | 22006 ft | 398 kts | 240° |
| 2026-05-04 20:00 | 52.03807 | 20.00981 | 22649 ft | 402 kts | 240° |
| 2026-05-04 20:00 | 52.02350 | 19.97101 | 23284 ft | 406 kts | 240° |
| 2026-05-04 20:00 | 52.00857 | 19.93131 | 23817 ft | 409 kts | 240° |
| 2026-05-04 20:01 | 51.99377 | 19.89203 | 23913 ft | 412 kts | 240° |
| 2026-05-04 20:01 | 51.98357 | 19.86497 | 23923 ft | 416 kts | 240° |
| 2026-05-04 20:01 | 51.97009 | 19.82928 | 23938 ft | 420 kts | 240° |
| 2026-05-04 20:01 | 51.95478 | 19.78881 | 23928 ft | 418 kts | 239° |
| 2026-05-04 20:02 | 51.93956 | 19.74863 | 23939 ft | 418 kts | 239° |
| 2026-05-04 20:02 | 51.92425 | 19.70830 | 23941 ft | 418 kts | 239° |
| 2026-05-04 20:02 | 51.90914 | 19.66852 | 23934 ft | 418 kts | 239° |
| 2026-05-04 20:02 | 51.89374 | 19.62809 | 23935 ft | 418 kts | 239° |
| 2026-05-04 20:03 | 51.87846 | 19.58801 | 23943 ft | 418 kts | 239° |
| 2026-05-04 20:03 | 51.86314 | 19.54787 | 23937 ft | 418 kts | 239° |
| 2026-05-04 20:03 | 51.84786 | 19.50790 | 23938 ft | 418 kts | 239° |
| 2026-05-04 20:03 | 51.83258 | 19.46801 | 23940 ft | 418 kts | 239° |
| 2026-05-04 20:04 | 51.81704 | 19.42749 | 23945 ft | 418 kts | 239° |
| 2026-05-04 20:04 | 51.80176 | 19.38773 | 23939 ft | 418 kts | 239° |
| 2026-05-04 20:04 | 51.78639 | 19.34777 | 23937 ft | 418 kts | 239° |
| 2026-05-04 20:04 | 51.77113 | 19.30817 | 23934 ft | 418 kts | 239° |
| 2026-05-04 20:05 | 51.75555 | 19.26783 | 23940 ft | 418 kts | 239° |
| 2026-05-04 20:05 | 51.74033 | 19.22846 | 23945 ft | 418 kts | 239° |
| 2026-05-04 20:05 | 51.72475 | 19.18821 | 23940 ft | 418 kts | 239° |
| 2026-05-04 20:05 | 51.70941 | 19.14864 | 23937 ft | 418 kts | 239° |
| 2026-05-04 20:06 | 51.69386 | 19.10861 | 23931 ft | 418 kts | 239° |
| 2026-05-04 20:06 | 51.67856 | 19.06929 | 23941 ft | 418 kts | 239° |
| 2026-05-04 20:06 | 51.66298 | 19.02930 | 23939 ft | 418 kts | 239° |
| 2026-05-04 20:06 | 51.64760 | 18.98989 | 23940 ft | 418 kts | 239° |
| 2026-05-04 20:07 | 51.63199 | 18.94996 | 23940 ft | 418 kts | 239° |
| 2026-05-04 20:07 | 51.61649 | 18.91036 | 23940 ft | 419 kts | 239° |
| 2026-05-04 20:07 | 51.60088 | 18.87053 | 23941 ft | 419 kts | 238° |
| 2026-05-04 20:07 | 51.58552 | 18.83141 | 23938 ft | 419 kts | 238° |
| 2026-05-04 20:08 | 51.56996 | 18.79185 | 23930 ft | 417 kts | 238° |
| 2026-05-04 20:08 | 51.55454 | 18.75270 | 23928 ft | 411 kts | 238° |
| 2026-05-04 20:08 | 51.53926 | 18.71397 | 23940 ft | 410 kts | 238° |
| 2026-05-04 20:08 | 51.52388 | 18.67502 | 23952 ft | 412 kts | 238° |
| 2026-05-04 20:09 | 51.50865 | 18.63653 | 23949 ft | 413 kts | 238° |
| 2026-05-04 20:09 | 51.49303 | 18.59709 | 23515 ft | 414 kts | 238° |
| 2026-05-04 20:09 | 51.47775 | 18.55858 | 22824 ft | 409 kts | 238° |
| 2026-05-04 20:09 | 51.46253 | 18.52029 | 22161 ft | 401 kts | 238° |
| 2026-05-04 20:10 | 51.44777 | 18.48323 | 21501 ft | 394 kts | 238° |
| 2026-05-04 20:10 | 51.43310 | 18.44641 | 20829 ft | 389 kts | 238° |
| 2026-05-04 20:10 | 51.41853 | 18.40991 | 20176 ft | 384 kts | 238° |
| 2026-05-04 20:10 | 51.40428 | 18.37427 | 19536 ft | 380 kts | 238° |
| 2026-05-04 20:11 | 51.39006 | 18.33875 | 18914 ft | 377 kts | 238° |
| 2026-05-04 20:11 | 51.37593 | 18.30348 | 18291 ft | 373 kts | 238° |
| 2026-05-04 20:11 | 51.36222 | 18.26930 | 17604 ft | 370 kts | 238° |
| 2026-05-04 20:11 | 51.34821 | 18.23447 | 16941 ft | 367 kts | 237° |
| 2026-05-04 20:12 | 51.33465 | 18.20076 | 16346 ft | 362 kts | 237° |
| 2026-05-04 20:12 | 51.32109 | 18.16712 | 15732 ft | 358 kts | 237° |
| 2026-05-04 20:12 | 51.30762 | 18.13373 | 15144 ft | 355 kts | 237° |
| 2026-05-04 20:12 | 51.29424 | 18.10059 | 14558 ft | 352 kts | 237° |
| 2026-05-04 20:13 | 51.28098 | 18.06779 | 13984 ft | 349 kts | 237° |
| 2026-05-04 20:13 | 51.26780 | 18.03528 | 13372 ft | 345 kts | 237° |
| 2026-05-04 20:13 | 51.25493 | 18.00352 | 12764 ft | 342 kts | 237° |
| 2026-05-04 20:13 | 51.24194 | 17.97152 | 12178 ft | 339 kts | 237° |
| 2026-05-04 20:14 | 51.22927 | 17.94035 | 11609 ft | 336 kts | 237° |
| 2026-05-04 20:14 | 51.21639 | 17.90872 | 11026 ft | 334 kts | 237° |
| 2026-05-04 20:14 | 51.20377 | 17.87771 | 10651 ft | 326 kts | 237° |
| 2026-05-04 20:14 | 51.19179 | 17.84833 | 10508 ft | 312 kts | 237° |
| 2026-05-04 20:15 | 51.18012 | 17.81977 | 10376 ft | 299 kts | 237° |
| 2026-05-04 20:15 | 51.16891 | 17.79239 | 10252 ft | 288 kts | 237° |
| 2026-05-04 20:15 | 51.15835 | 17.76661 | 10124 ft | 271 kts | 237° |
| 2026-05-04 20:15 | 51.14832 | 17.74219 | 9993 ft | 254 kts | 237° |
| 2026-05-04 20:16 | 51.13891 | 17.71927 | 9825 ft | 242 kts | 237° |
| 2026-05-04 20:16 | 51.12978 | 17.69700 | 9576 ft | 243 kts | 237° |
| 2026-05-04 20:16 | 51.12041 | 17.67420 | 9283 ft | 248 kts | 237° |
| 2026-05-04 20:16 | 51.11080 | 17.65079 | 8969 ft | 259 kts | 237° |
| 2026-05-04 20:17 | 51.10086 | 17.62659 | 8644 ft | 256 kts | 237° |
| 2026-05-04 20:17 | 51.09132 | 17.60342 | 8326 ft | 249 kts | 237° |
| 2026-05-04 20:17 | 51.08190 | 17.58053 | 8050 ft | 242 kts | 237° |
| 2026-05-04 20:17 | 51.07286 | 17.55860 | 7787 ft | 237 kts | 237° |
| 2026-05-04 20:18 | 51.06376 | 17.53649 | 7516 ft | 240 kts | 236° |
| 2026-05-04 20:18 | 51.05445 | 17.51397 | 7256 ft | 250 kts | 237° |
| 2026-05-04 20:18 | 51.04460 | 17.49023 | 6934 ft | 259 kts | 236° |
| 2026-05-04 20:18 | 51.03479 | 17.46652 | 6577 ft | 254 kts | 236° |
| 2026-05-04 20:19 | 51.02538 | 17.44374 | 6298 ft | 249 kts | 236° |
| 2026-05-04 20:19 | 51.01583 | 17.42072 | 5935 ft | 244 kts | 236° |
| 2026-05-04 20:19 | 51.00673 | 17.39845 | 5752 ft | 234 kts | 236° |
| 2026-05-04 20:19 | 50.99780 | 17.37711 | 5603 ft | 232 kts | 236° |
| 2026-05-04 20:20 | 50.98875 | 17.35539 | 5526 ft | 236 kts | 236° |
| 2026-05-04 20:20 | 50.97994 | 17.33412 | 5433 ft | 226 kts | 237° |
| 2026-05-04 20:20 | 50.97485 | 17.31116 | 5123 ft | 224 kts | 269° |
| 2026-05-04 20:20 | 50.97815 | 17.28718 | 4750 ft | 224 kts | 291° |
| 2026-05-04 20:21 | 50.98509 | 17.26407 | 4101 ft | 235 kts | 296° |
| 2026-05-04 20:21 | 50.99254 | 17.24103 | 3726 ft | 233 kts | 296° |
| 2026-05-04 20:21 | 51.00711 | 17.19518 | 3018 ft | 230 kts | 296° |
| 2026-05-04 20:22 | 51.01434 | 17.17223 | 2735 ft | 235 kts | 296° |
| 2026-05-04 20:22 | 51.02194 | 17.14874 | 2725 ft | 245 kts | 298° |
| 2026-05-04 20:22 | 51.02997 | 17.12457 | 2684 ft | 249 kts | 296° |
| 2026-05-04 20:22 | 51.03765 | 17.09970 | 2694 ft | 253 kts | 295° |
| 2026-05-04 20:23 | 51.04524 | 17.07448 | 2713 ft | 253 kts | 295° |
| 2026-05-04 20:23 | 51.05298 | 17.04895 | 2452 ft | 258 kts | 295° |
| 2026-05-04 20:23 | 51.06076 | 17.02343 | 2108 ft | 246 kts | 296° |
| 2026-05-04 20:23 | 51.06770 | 17.00055 | 1812 ft | 220 kts | 296° |
| 2026-05-04 20:24 | 51.07419 | 16.97924 | 1518 ft | 200 kts | 296° |
| 2026-05-04 20:24 | 51.07993 | 16.96039 | 1283 ft | 180 kts | 296° |
| 2026-05-04 20:24 | 51.08514 | 16.94329 | 1046 ft | 164 kts | 296° |
| 2026-05-04 20:24 | 51.08990 | 16.92769 | 842 ft | 150 kts | 295° |
| 2026-05-04 20:25 | 51.09426 | 16.91326 | 610 ft | 139 kts | 296° |
| 2026-05-04 20:25 | 51.09833 | 16.89983 | 469 ft | 135 kts | 296° |
| 2026-05-04 20:25 | 51.10248 | 16.88653 | 403 ft | 125 kts | 296° |
| 2026-05-04 20:25 | 51.10580 | 16.87587 | 401 ft | 93 kts | 296° |
| 2026-05-04 20:26 | 51.10730 | 16.87265 | 403 ft | 15 kts | 8° |
| 2026-05-04 20:26 | 51.10794 | 16.87301 | 402 ft | 14 kts | 27° |
| 2026-05-04 20:26 | 51.10882 | 16.87374 | 401 ft | 14 kts | 27° |
| 2026-05-04 20:26 | 51.10949 | 16.87456 | 402 ft | 3 kts | 79° |
| 2026-05-04 20:27 | 51.10938 | 16.87506 | 399 ft | 7 kts | 114° |
| 2026-05-04 20:27 | 51.10915 | 16.87584 | 402 ft | 8 kts | 115° |
| 2026-05-04 20:27 | 51.10891 | 16.87664 | 401 ft | 8 kts | 116° |
| 2026-05-04 20:27 | 51.10867 | 16.87741 | 402 ft | 8 kts | 117° |
| 2026-05-04 20:28 | 51.10844 | 16.87816 | 402 ft | 7 kts | 117° |
| 2026-05-04 20:28 | 51.10821 | 16.87887 | 400 ft | 7 kts | 116° |
| 2026-05-04 20:28 | 51.10801 | 16.87957 | 402 ft | 7 kts | 116° |
| 2026-05-04 20:28 | 51.10781 | 16.88027 | 400 ft | 7 kts | 102° |
| 2026-05-04 20:29 | 51.10797 | 16.88067 | 401 ft | 3 kts | 20° |
| 2026-05-04 20:29 | 51.10818 | 16.88081 | 402 ft | 3 kts | 26° |
| 2026-05-04 20:29 | 51.10838 | 16.88097 | 402 ft | 3 kts | 27° |
| 2026-05-04 20:29 | 51.10840 | 16.88099 | 402 ft | 0 kts | 26° |